sensor_id;sensor_type;location;lat;lon;timestamp;P1;durP1;ratioP1;P2;durP2;ratioP2
22417;SDS011;11376;50.932;4.442;2022-10-16T00:01:03;1.27;;;0.57;;
22417;SDS011;11376;50.932;4.442;2022-10-16T00:03:30;0.85;;;0.40;;
22417;SDS011;11376;50.932;4.442;2022-10-16T00:05:58;1.70;;;0.50;;
22417;SDS011;11376;50.932;4.442;2022-10-16T00:08:25;1.33;;;0.40;;
22417;SDS011;11376;50.932;4.442;2022-10-16T00:10:50;1.88;;;0.40;;
22417;SDS011;11376;50.932;4.442;2022-10-16T00:13:16;2.63;;;0.47;;
22417;SDS011;11376;50.932;4.442;2022-10-16T00:15:43;1.00;;;0.47;;
22417;SDS011;11376;50.932;4.442;2022-10-16T00:18:09;1.45;;;0.50;;
22417;SDS011;11376;50.932;4.442;2022-10-16T00:20:35;1.30;;;0.30;;
22417;SDS011;11376;50.932;4.442;2022-10-16T00:23:01;1.63;;;0.52;;
22417;SDS011;11376;50.932;4.442;2022-10-16T00:25:28;2.10;;;0.50;;
22417;SDS011;11376;50.932;4.442;2022-10-16T00:27:54;3.50;;;0.40;;
22417;SDS011;11376;50.932;4.442;2022-10-16T00:30:19;1.95;;;0.40;;
22417;SDS011;11376;50.932;4.442;2022-10-16T00:32:45;2.45;;;0.50;;
22417;SDS011;11376;50.932;4.442;2022-10-16T00:35:11;4.22;;;0.70;;
22417;SDS011;11376;50.932;4.442;2022-10-16T00:37:36;1.35;;;0.50;;
22417;SDS011;11376;50.932;4.442;2022-10-16T00:40:02;1.85;;;0.50;;
22417;SDS011;11376;50.932;4.442;2022-10-16T00:42:27;2.92;;;0.60;;
22417;SDS011;11376;50.932;4.442;2022-10-16T00:44:54;1.25;;;0.40;;
22417;SDS011;11376;50.932;4.442;2022-10-16T00:47:29;4.22;;;1.00;;
22417;SDS011;11376;50.932;4.442;2022-10-16T00:49:59;0.85;;;0.45;;
22417;SDS011;11376;50.932;4.442;2022-10-16T00:52:33;1.85;;;0.70;;
22417;SDS011;11376;50.932;4.442;2022-10-16T00:54:59;2.38;;;0.80;;
22417;SDS011;11376;50.932;4.442;2022-10-16T00:57:26;1.92;;;0.88;;
22417;SDS011;11376;50.932;4.442;2022-10-16T00:59:52;2.67;;;0.73;;
22417;SDS011;11376;50.932;4.442;2022-10-16T01:02:18;1.70;;;0.68;;
22417;SDS011;11376;50.932;4.442;2022-10-16T01:04:48;1.30;;;0.57;;
22417;SDS011;11376;50.932;4.442;2022-10-16T01:07:29;1.33;;;0.65;;
22417;SDS011;11376;50.932;4.442;2022-10-16T01:10:32;1.35;;;0.52;;
22417;SDS011;11376;50.932;4.442;2022-10-16T01:13:12;4.50;;;0.68;;
22417;SDS011;11376;50.932;4.442;2022-10-16T01:21:24;1.95;;;0.50;;
22417;SDS011;11376;50.932;4.442;2022-10-16T01:29:24;4.05;;;0.82;;
22417;SDS011;11376;50.932;4.442;2022-10-16T01:32:10;1.27;;;0.50;;
22417;SDS011;11376;50.932;4.442;2022-10-16T01:37:32;1.90;;;0.50;;
22417;SDS011;11376;50.932;4.442;2022-10-16T01:40:05;4.28;;;0.50;;
22417;SDS011;11376;50.932;4.442;2022-10-16T01:42:35;2.28;;;0.70;;
22417;SDS011;11376;50.932;4.442;2022-10-16T01:45:05;2.72;;;0.70;;
22417;SDS011;11376;50.932;4.442;2022-10-16T01:47:33;2.35;;;0.60;;
22417;SDS011;11376;50.932;4.442;2022-10-16T01:50:02;1.70;;;0.57;;
22417;SDS011;11376;50.932;4.442;2022-10-16T01:52:33;1.58;;;0.60;;
22417;SDS011;11376;50.932;4.442;2022-10-16T01:55:02;2.35;;;0.60;;
22417;SDS011;11376;50.932;4.442;2022-10-16T01:57:31;1.58;;;0.45;;
22417;SDS011;11376;50.932;4.442;2022-10-16T02:00:00;3.50;;;0.77;;
22417;SDS011;11376;50.932;4.442;2022-10-16T02:02:29;2.80;;;0.77;;
22417;SDS011;11376;50.932;4.442;2022-10-16T02:05:08;2.30;;;0.70;;
22417;SDS011;11376;50.932;4.442;2022-10-16T02:07:58;2.05;;;0.70;;
22417;SDS011;11376;50.932;4.442;2022-10-16T02:10:24;2.65;;;0.80;;
22417;SDS011;11376;50.932;4.442;2022-10-16T02:12:58;1.05;;;0.45;;
22417;SDS011;11376;50.932;4.442;2022-10-16T02:15:28;3.13;;;0.80;;
22417;SDS011;11376;50.932;4.442;2022-10-16T02:17:53;2.08;;;0.60;;
22417;SDS011;11376;50.932;4.442;2022-10-16T02:20:20;2.58;;;0.60;;
22417;SDS011;11376;50.932;4.442;2022-10-16T02:22:51;1.50;;;0.68;;
22417;SDS011;11376;50.932;4.442;2022-10-16T02:25:26;1.33;;;0.60;;
22417;SDS011;11376;50.932;4.442;2022-10-16T02:30:42;1.33;;;0.63;;
22417;SDS011;11376;50.932;4.442;2022-10-16T02:33:13;3.20;;;0.50;;
22417;SDS011;11376;50.932;4.442;2022-10-16T02:35:41;4.18;;;0.60;;
22417;SDS011;11376;50.932;4.442;2022-10-16T02:38:08;3.83;;;0.88;;
22417;SDS011;11376;50.932;4.442;2022-10-16T02:40:35;3.95;;;0.85;;
22417;SDS011;11376;50.932;4.442;2022-10-16T02:43:02;3.65;;;0.77;;
22417;SDS011;11376;50.932;4.442;2022-10-16T02:45:29;3.67;;;0.60;;
22417;SDS011;11376;50.932;4.442;2022-10-16T02:47:55;2.67;;;0.60;;
22417;SDS011;11376;50.932;4.442;2022-10-16T02:50:21;0.70;;;0.40;;
22417;SDS011;11376;50.932;4.442;2022-10-16T02:52:47;1.75;;;0.80;;
22417;SDS011;11376;50.932;4.442;2022-10-16T02:55:13;3.83;;;0.77;;
22417;SDS011;11376;50.932;4.442;2022-10-16T02:57:38;1.75;;;0.80;;
22417;SDS011;11376;50.932;4.442;2022-10-16T03:00:05;5.78;;;0.80;;
22417;SDS011;11376;50.932;4.442;2022-10-16T03:02:33;1.40;;;0.70;;
22417;SDS011;11376;50.932;4.442;2022-10-16T03:04:58;6.72;;;1.00;;
22417;SDS011;11376;50.932;4.442;2022-10-16T03:07:24;2.03;;;0.80;;
22417;SDS011;11376;50.932;4.442;2022-10-16T03:09:49;3.20;;;0.80;;
22417;SDS011;11376;50.932;4.442;2022-10-16T03:12:15;5.05;;;0.95;;
22417;SDS011;11376;50.932;4.442;2022-10-16T03:14:40;3.67;;;0.82;;
22417;SDS011;11376;50.932;4.442;2022-10-16T03:17:06;3.75;;;1.20;;
22417;SDS011;11376;50.932;4.442;2022-10-16T03:19:32;4.40;;;1.00;;
22417;SDS011;11376;50.932;4.442;2022-10-16T03:21:57;5.10;;;1.00;;
22417;SDS011;11376;50.932;4.442;2022-10-16T03:24:23;3.67;;;0.70;;
22417;SDS011;11376;50.932;4.442;2022-10-16T03:26:48;3.63;;;0.75;;
22417;SDS011;11376;50.932;4.442;2022-10-16T03:29:14;3.03;;;0.90;;
22417;SDS011;11376;50.932;4.442;2022-10-16T03:31:40;2.05;;;0.75;;
22417;SDS011;11376;50.932;4.442;2022-10-16T03:34:05;2.92;;;1.00;;
22417;SDS011;11376;50.932;4.442;2022-10-16T03:36:31;3.63;;;0.70;;
22417;SDS011;11376;50.932;4.442;2022-10-16T03:38:56;2.65;;;0.98;;
22417;SDS011;11376;50.932;4.442;2022-10-16T03:41:22;4.72;;;0.82;;
22417;SDS011;11376;50.932;4.442;2022-10-16T03:43:48;3.15;;;0.70;;
22417;SDS011;11376;50.932;4.442;2022-10-16T03:46:13;5.15;;;0.70;;
22417;SDS011;11376;50.932;4.442;2022-10-16T03:48:39;4.55;;;0.63;;
22417;SDS011;11376;50.932;4.442;2022-10-16T03:51:05;2.50;;;0.70;;
22417;SDS011;11376;50.932;4.442;2022-10-16T03:53:30;1.52;;;0.70;;
22417;SDS011;11376;50.932;4.442;2022-10-16T03:55:56;2.83;;;0.77;;
22417;SDS011;11376;50.932;4.442;2022-10-16T03:58:22;4.45;;;0.70;;
22417;SDS011;11376;50.932;4.442;2022-10-16T04:00:47;1.55;;;0.70;;
22417;SDS011;11376;50.932;4.442;2022-10-16T04:03:13;3.63;;;0.80;;
22417;SDS011;11376;50.932;4.442;2022-10-16T04:05:39;3.40;;;0.90;;
22417;SDS011;11376;50.932;4.442;2022-10-16T04:08:05;4.10;;;0.80;;
22417;SDS011;11376;50.932;4.442;2022-10-16T04:10:30;2.70;;;0.80;;
22417;SDS011;11376;50.932;4.442;2022-10-16T04:12:56;5.70;;;1.00;;
22417;SDS011;11376;50.932;4.442;2022-10-16T04:15:22;3.30;;;0.60;;
22417;SDS011;11376;50.932;4.442;2022-10-16T04:17:48;4.53;;;0.63;;
22417;SDS011;11376;50.932;4.442;2022-10-16T04:20:14;2.70;;;0.70;;
22417;SDS011;11376;50.932;4.442;2022-10-16T04:22:40;3.30;;;0.70;;
22417;SDS011;11376;50.932;4.442;2022-10-16T04:25:05;3.28;;;0.90;;
22417;SDS011;11376;50.932;4.442;2022-10-16T04:27:31;2.15;;;0.63;;
22417;SDS011;11376;50.932;4.442;2022-10-16T04:29:57;6.05;;;1.00;;
22417;SDS011;11376;50.932;4.442;2022-10-16T04:32:23;2.08;;;0.57;;
22417;SDS011;11376;50.932;4.442;2022-10-16T04:34:49;4.43;;;0.77;;
22417;SDS011;11376;50.932;4.442;2022-10-16T04:37:15;3.53;;;0.80;;
22417;SDS011;11376;50.932;4.442;2022-10-16T04:39:40;3.70;;;0.80;;
22417;SDS011;11376;50.932;4.442;2022-10-16T04:42:06;2.65;;;0.50;;
22417;SDS011;11376;50.932;4.442;2022-10-16T04:44:31;4.55;;;0.70;;
22417;SDS011;11376;50.932;4.442;2022-10-16T04:46:57;2.83;;;0.63;;
22417;SDS011;11376;50.932;4.442;2022-10-16T04:49:22;1.85;;;0.68;;
22417;SDS011;11376;50.932;4.442;2022-10-16T04:51:48;3.47;;;0.82;;
22417;SDS011;11376;50.932;4.442;2022-10-16T04:54:14;2.30;;;0.90;;
22417;SDS011;11376;50.932;4.442;2022-10-16T04:56:39;2.50;;;0.88;;
22417;SDS011;11376;50.932;4.442;2022-10-16T04:59:11;3.17;;;0.95;;
22417;SDS011;11376;50.932;4.442;2022-10-16T05:01:37;1.67;;;0.68;;
22417;SDS011;11376;50.932;4.442;2022-10-16T05:04:03;3.42;;;0.80;;
22417;SDS011;11376;50.932;4.442;2022-10-16T05:06:29;4.18;;;0.90;;
22417;SDS011;11376;50.932;4.442;2022-10-16T05:08:54;7.07;;;0.85;;
22417;SDS011;11376;50.932;4.442;2022-10-16T05:11:20;2.22;;;0.80;;
22417;SDS011;11376;50.932;4.442;2022-10-16T05:13:46;5.63;;;0.90;;
22417;SDS011;11376;50.932;4.442;2022-10-16T05:16:11;4.68;;;0.98;;
22417;SDS011;11376;50.932;4.442;2022-10-16T05:18:37;4.70;;;1.00;;
22417;SDS011;11376;50.932;4.442;2022-10-16T05:21:03;4.30;;;0.90;;
22417;SDS011;11376;50.932;4.442;2022-10-16T05:23:28;3.47;;;0.90;;
22417;SDS011;11376;50.932;4.442;2022-10-16T05:25:57;3.22;;;0.98;;
22417;SDS011;11376;50.932;4.442;2022-10-16T05:28:25;2.97;;;0.80;;
22417;SDS011;11376;50.932;4.442;2022-10-16T05:30:51;4.20;;;0.70;;
22417;SDS011;11376;50.932;4.442;2022-10-16T05:33:19;2.72;;;0.88;;
22417;SDS011;11376;50.932;4.442;2022-10-16T05:35:45;4.93;;;0.88;;
22417;SDS011;11376;50.932;4.442;2022-10-16T05:38:11;3.55;;;0.93;;
22417;SDS011;11376;50.932;4.442;2022-10-16T05:40:37;4.10;;;0.95;;
22417;SDS011;11376;50.932;4.442;2022-10-16T05:43:02;5.03;;;1.15;;
22417;SDS011;11376;50.932;4.442;2022-10-16T05:45:28;4.03;;;1.73;;
22417;SDS011;11376;50.932;4.442;2022-10-16T05:47:54;4.85;;;1.10;;
22417;SDS011;11376;50.932;4.442;2022-10-16T05:50:19;6.00;;;1.05;;
22417;SDS011;11376;50.932;4.442;2022-10-16T05:52:45;3.55;;;1.08;;
22417;SDS011;11376;50.932;4.442;2022-10-16T05:55:10;4.65;;;0.90;;
22417;SDS011;11376;50.932;4.442;2022-10-16T05:57:36;2.00;;;0.80;;
22417;SDS011;11376;50.932;4.442;2022-10-16T06:00:02;4.38;;;0.88;;
22417;SDS011;11376;50.932;4.442;2022-10-16T06:02:28;1.95;;;0.80;;
22417;SDS011;11376;50.932;4.442;2022-10-16T06:04:54;5.47;;;0.98;;
22417;SDS011;11376;50.932;4.442;2022-10-16T06:07:20;3.75;;;1.15;;
22417;SDS011;11376;50.932;4.442;2022-10-16T06:09:49;6.85;;;0.90;;
22417;SDS011;11376;50.932;4.442;2022-10-16T06:12:16;4.43;;;1.27;;
22417;SDS011;11376;50.932;4.442;2022-10-16T06:14:42;2.83;;;1.10;;
22417;SDS011;11376;50.932;4.442;2022-10-16T06:17:07;3.03;;;1.13;;
22417;SDS011;11376;50.932;4.442;2022-10-16T06:19:33;3.47;;;1.20;;
22417;SDS011;11376;50.932;4.442;2022-10-16T06:21:58;7.07;;;1.75;;
22417;SDS011;11376;50.932;4.442;2022-10-16T06:24:36;7.72;;;1.35;;
22417;SDS011;11376;50.932;4.442;2022-10-16T06:27:02;2.90;;;1.40;;
22417;SDS011;11376;50.932;4.442;2022-10-16T06:29:28;9.20;;;1.80;;
22417;SDS011;11376;50.932;4.442;2022-10-16T06:31:54;3.78;;;1.45;;
22417;SDS011;11376;50.932;4.442;2022-10-16T06:34:19;6.80;;;1.52;;
22417;SDS011;11376;50.932;4.442;2022-10-16T06:36:45;6.82;;;1.55;;
22417;SDS011;11376;50.932;4.442;2022-10-16T06:39:10;6.07;;;1.60;;
22417;SDS011;11376;50.932;4.442;2022-10-16T06:41:36;8.05;;;1.45;;
22417;SDS011;11376;50.932;4.442;2022-10-16T06:44:04;3.72;;;1.38;;
22417;SDS011;11376;50.932;4.442;2022-10-16T06:46:31;5.35;;;1.33;;
22417;SDS011;11376;50.932;4.442;2022-10-16T06:48:56;4.53;;;1.40;;
22417;SDS011;11376;50.932;4.442;2022-10-16T06:51:22;4.15;;;1.27;;
22417;SDS011;11376;50.932;4.442;2022-10-16T06:53:49;7.40;;;1.30;;
22417;SDS011;11376;50.932;4.442;2022-10-16T06:56:20;4.65;;;1.30;;
22417;SDS011;11376;50.932;4.442;2022-10-16T06:58:48;8.07;;;1.75;;
22417;SDS011;11376;50.932;4.442;2022-10-16T07:01:15;7.80;;;1.40;;
22417;SDS011;11376;50.932;4.442;2022-10-16T07:03:42;4.47;;;1.77;;
22417;SDS011;11376;50.932;4.442;2022-10-16T07:06:09;8.95;;;1.60;;
22417;SDS011;11376;50.932;4.442;2022-10-16T07:08:37;4.25;;;1.20;;
22417;SDS011;11376;50.932;4.442;2022-10-16T07:11:05;4.22;;;1.30;;
22417;SDS011;11376;50.932;4.442;2022-10-16T07:13:35;4.90;;;1.40;;
22417;SDS011;11376;50.932;4.442;2022-10-16T07:16:08;4.43;;;1.60;;
22417;SDS011;11376;50.932;4.442;2022-10-16T07:18:44;4.10;;;1.20;;
22417;SDS011;11376;50.932;4.442;2022-10-16T07:23:38;5.32;;;1.83;;
22417;SDS011;11376;50.932;4.442;2022-10-16T07:26:05;4.60;;;1.48;;
22417;SDS011;11376;50.932;4.442;2022-10-16T07:28:31;7.25;;;1.20;;
22417;SDS011;11376;50.932;4.442;2022-10-16T07:31:01;2.97;;;1.20;;
22417;SDS011;11376;50.932;4.442;2022-10-16T07:33:27;4.13;;;1.15;;
22417;SDS011;11376;50.932;4.442;2022-10-16T07:35:53;4.95;;;1.20;;
22417;SDS011;11376;50.932;4.442;2022-10-16T07:38:20;6.15;;;1.15;;
22417;SDS011;11376;50.932;4.442;2022-10-16T07:40:46;4.05;;;1.40;;
22417;SDS011;11376;50.932;4.442;2022-10-16T07:43:12;4.30;;;1.00;;
22417;SDS011;11376;50.932;4.442;2022-10-16T07:45:46;3.97;;;1.20;;
22417;SDS011;11376;50.932;4.442;2022-10-16T07:48:13;4.72;;;0.93;;
22417;SDS011;11376;50.932;4.442;2022-10-16T07:50:39;3.90;;;1.17;;
22417;SDS011;11376;50.932;4.442;2022-10-16T07:53:04;4.10;;;1.10;;
22417;SDS011;11376;50.932;4.442;2022-10-16T07:55:30;4.65;;;1.08;;
22417;SDS011;11376;50.932;4.442;2022-10-16T07:57:55;4.70;;;1.08;;
22417;SDS011;11376;50.932;4.442;2022-10-16T08:00:21;5.18;;;1.00;;
22417;SDS011;11376;50.932;4.442;2022-10-16T08:02:46;3.67;;;0.93;;
22417;SDS011;11376;50.932;4.442;2022-10-16T08:05:12;3.10;;;1.15;;
22417;SDS011;11376;50.932;4.442;2022-10-16T08:07:38;5.45;;;1.08;;
22417;SDS011;11376;50.932;4.442;2022-10-16T08:10:03;7.13;;;1.00;;
22417;SDS011;11376;50.932;4.442;2022-10-16T08:12:29;3.78;;;1.05;;
22417;SDS011;11376;50.932;4.442;2022-10-16T08:14:55;3.70;;;0.93;;
22417;SDS011;11376;50.932;4.442;2022-10-16T08:17:20;6.28;;;0.90;;
22417;SDS011;11376;50.932;4.442;2022-10-16T08:19:46;4.55;;;1.10;;
22417;SDS011;11376;50.932;4.442;2022-10-16T08:22:13;3.47;;;1.08;;
22417;SDS011;11376;50.932;4.442;2022-10-16T08:24:39;4.78;;;1.15;;
22417;SDS011;11376;50.932;4.442;2022-10-16T08:27:05;4.93;;;1.20;;
22417;SDS011;11376;50.932;4.442;2022-10-16T08:29:30;3.63;;;0.80;;
22417;SDS011;11376;50.932;4.442;2022-10-16T08:31:56;2.85;;;0.88;;
22417;SDS011;11376;50.932;4.442;2022-10-16T08:34:21;3.88;;;1.17;;
22417;SDS011;11376;50.932;4.442;2022-10-16T08:36:47;3.42;;;1.02;;
22417;SDS011;11376;50.932;4.442;2022-10-16T08:39:15;8.10;;;1.30;;
22417;SDS011;11376;50.932;4.442;2022-10-16T08:41:59;3.85;;;0.90;;
22417;SDS011;11376;50.932;4.442;2022-10-16T08:47:12;4.03;;;1.00;;
22417;SDS011;11376;50.932;4.442;2022-10-16T08:49:42;6.25;;;1.25;;
22417;SDS011;11376;50.932;4.442;2022-10-16T08:52:12;5.20;;;1.33;;
22417;SDS011;11376;50.932;4.442;2022-10-16T08:54:41;5.00;;;1.00;;
22417;SDS011;11376;50.932;4.442;2022-10-16T08:57:13;3.83;;;1.02;;
22417;SDS011;11376;50.932;4.442;2022-10-16T08:59:45;2.50;;;0.90;;
22417;SDS011;11376;50.932;4.442;2022-10-16T09:02:23;4.10;;;0.85;;
22417;SDS011;11376;50.932;4.442;2022-10-16T09:04:54;5.63;;;1.20;;
22417;SDS011;11376;50.932;4.442;2022-10-16T09:10:11;4.78;;;0.88;;
22417;SDS011;11376;50.932;4.442;2022-10-16T09:23:48;4.07;;;0.88;;
22417;SDS011;11376;50.932;4.442;2022-10-16T09:26:15;4.53;;;0.80;;
22417;SDS011;11376;50.932;4.442;2022-10-16T09:28:41;2.80;;;0.68;;
22417;SDS011;11376;50.932;4.442;2022-10-16T09:31:12;5.10;;;0.80;;
22417;SDS011;11376;50.932;4.442;2022-10-16T09:33:53;5.20;;;0.90;;
22417;SDS011;11376;50.932;4.442;2022-10-16T09:36:23;6.10;;;0.90;;
22417;SDS011;11376;50.932;4.442;2022-10-16T09:39:01;4.85;;;0.70;;
22417;SDS011;11376;50.932;4.442;2022-10-16T09:41:29;4.22;;;0.98;;
22417;SDS011;11376;50.932;4.442;2022-10-16T09:43:55;4.35;;;0.68;;
22417;SDS011;11376;50.932;4.442;2022-10-16T09:48:59;4.00;;;0.75;;
22417;SDS011;11376;50.932;4.442;2022-10-16T09:51:33;5.72;;;0.80;;
22417;SDS011;11376;50.932;4.442;2022-10-16T09:56:35;4.05;;;0.70;;
22417;SDS011;11376;50.932;4.442;2022-10-16T09:59:10;5.90;;;0.93;;
22417;SDS011;11376;50.932;4.442;2022-10-16T10:01:52;4.50;;;0.93;;
22417;SDS011;11376;50.932;4.442;2022-10-16T10:04:20;4.82;;;1.00;;
22417;SDS011;11376;50.932;4.442;2022-10-16T10:06:53;3.13;;;0.85;;
22417;SDS011;11376;50.932;4.442;2022-10-16T10:11:55;4.03;;;0.90;;
22417;SDS011;11376;50.932;4.442;2022-10-16T10:14:31;2.55;;;0.90;;
22417;SDS011;11376;50.932;4.442;2022-10-16T10:19:37;2.28;;;0.80;;
22417;SDS011;11376;50.932;4.442;2022-10-16T10:22:17;4.85;;;0.77;;
22417;SDS011;11376;50.932;4.442;2022-10-16T10:33:09;6.20;;;0.80;;
22417;SDS011;11376;50.932;4.442;2022-10-16T10:35:44;2.55;;;0.60;;
22417;SDS011;11376;50.932;4.442;2022-10-16T10:38:20;3.53;;;0.80;;
22417;SDS011;11376;50.932;4.442;2022-10-16T10:41:12;4.45;;;0.70;;
22417;SDS011;11376;50.932;4.442;2022-10-16T10:46:29;4.75;;;0.90;;
22417;SDS011;11376;50.932;4.442;2022-10-16T10:51:52;4.55;;;0.85;;
22417;SDS011;11376;50.932;4.442;2022-10-16T10:54:42;3.47;;;0.75;;
22417;SDS011;11376;50.932;4.442;2022-10-16T11:02:54;2.60;;;0.88;;
22417;SDS011;11376;50.932;4.442;2022-10-16T11:05:28;3.30;;;0.80;;
22417;SDS011;11376;50.932;4.442;2022-10-16T11:10:48;2.30;;;0.73;;
22417;SDS011;11376;50.932;4.442;2022-10-16T11:13:31;4.05;;;0.70;;
22417;SDS011;11376;50.932;4.442;2022-10-16T11:16:16;2.35;;;0.70;;
22417;SDS011;11376;50.932;4.442;2022-10-16T11:18:56;4.25;;;0.65;;
22417;SDS011;11376;50.932;4.442;2022-10-16T11:21:48;6.15;;;0.95;;
22417;SDS011;11376;50.932;4.442;2022-10-16T11:24:36;4.20;;;0.75;;
22417;SDS011;11376;50.932;4.442;2022-10-16T11:27:11;3.35;;;0.77;;
22417;SDS011;11376;50.932;4.442;2022-10-16T11:29:45;2.88;;;0.80;;
22417;SDS011;11376;50.932;4.442;2022-10-16T11:32:19;3.28;;;0.82;;
22417;SDS011;11376;50.932;4.442;2022-10-16T11:35:06;3.47;;;0.90;;
22417;SDS011;11376;50.932;4.442;2022-10-16T11:37:43;2.88;;;0.60;;
22417;SDS011;11376;50.932;4.442;2022-10-16T11:40:22;3.92;;;0.77;;
22417;SDS011;11376;50.932;4.442;2022-10-16T11:43:08;5.45;;;1.17;;
22417;SDS011;11376;50.932;4.442;2022-10-16T11:45:41;4.15;;;0.70;;
22417;SDS011;11376;50.932;4.442;2022-10-16T11:50:56;2.47;;;0.63;;
22417;SDS011;11376;50.932;4.442;2022-10-16T11:53:43;3.85;;;0.60;;
22417;SDS011;11376;50.932;4.442;2022-10-16T11:56:29;2.97;;;0.80;;
22417;SDS011;11376;50.932;4.442;2022-10-16T11:59:02;2.28;;;0.90;;
22417;SDS011;11376;50.932;4.442;2022-10-16T12:04:48;2.20;;;0.85;;
22417;SDS011;11376;50.932;4.442;2022-10-16T12:07:22;3.00;;;0.63;;
22417;SDS011;11376;50.932;4.442;2022-10-16T12:09:52;2.40;;;0.80;;
22417;SDS011;11376;50.932;4.442;2022-10-16T12:12:28;2.88;;;0.82;;
22417;SDS011;11376;50.932;4.442;2022-10-16T12:17:49;2.70;;;1.20;;
22417;SDS011;11376;50.932;4.442;2022-10-16T12:22:55;1.80;;;0.50;;
22417;SDS011;11376;50.932;4.442;2022-10-16T12:25:26;4.00;;;0.70;;
22417;SDS011;11376;50.932;4.442;2022-10-16T12:27:55;3.60;;;0.70;;
22417;SDS011;11376;50.932;4.442;2022-10-16T12:30:42;3.50;;;0.60;;
22417;SDS011;11376;50.932;4.442;2022-10-16T12:35:50;3.47;;;0.85;;
22417;SDS011;11376;50.932;4.442;2022-10-16T12:38:26;3.22;;;0.68;;
22417;SDS011;11376;50.932;4.442;2022-10-16T12:40:59;2.30;;;0.65;;
22417;SDS011;11376;50.932;4.442;2022-10-16T12:43:40;3.67;;;0.70;;
22417;SDS011;11376;50.932;4.442;2022-10-16T12:48:33;5.20;;;0.60;;
22417;SDS011;11376;50.932;4.442;2022-10-16T12:53:46;2.58;;;0.85;;
22417;SDS011;11376;50.932;4.442;2022-10-16T12:56:24;3.55;;;0.70;;
22417;SDS011;11376;50.932;4.442;2022-10-16T12:59:09;3.35;;;0.52;;
22417;SDS011;11376;50.932;4.442;2022-10-16T13:07:48;1.65;;;0.60;;
22417;SDS011;11376;50.932;4.442;2022-10-16T13:10:54;1.42;;;0.50;;
22417;SDS011;11376;50.932;4.442;2022-10-16T13:19:22;1.38;;;0.30;;
22417;SDS011;11376;50.932;4.442;2022-10-16T13:21:59;1.65;;;0.40;;
22417;SDS011;11376;50.932;4.442;2022-10-16T13:24:49;3.10;;;0.38;;
22417;SDS011;11376;50.932;4.442;2022-10-16T13:27:28;2.63;;;0.32;;
22417;SDS011;11376;50.932;4.442;2022-10-16T13:30:01;2.47;;;0.40;;
22417;SDS011;11376;50.932;4.442;2022-10-16T13:32:38;5.10;;;0.60;;
22417;SDS011;11376;50.932;4.442;2022-10-16T13:35:15;3.35;;;0.65;;
22417;SDS011;11376;50.932;4.442;2022-10-16T13:37:48;5.07;;;0.55;;
22417;SDS011;11376;50.932;4.442;2022-10-16T13:40:18;2.00;;;0.32;;
22417;SDS011;11376;50.932;4.442;2022-10-16T13:42:49;2.08;;;0.40;;
22417;SDS011;11376;50.932;4.442;2022-10-16T13:45:22;3.20;;;0.47;;
22417;SDS011;11376;50.932;4.442;2022-10-16T13:47:50;3.67;;;0.55;;
22417;SDS011;11376;50.932;4.442;2022-10-16T13:50:29;1.83;;;0.30;;
22417;SDS011;11376;50.932;4.442;2022-10-16T13:53:05;6.22;;;0.50;;
22417;SDS011;11376;50.932;4.442;2022-10-16T13:55:31;2.05;;;0.40;;
22417;SDS011;11376;50.932;4.442;2022-10-16T13:58:13;2.67;;;0.50;;
22417;SDS011;11376;50.932;4.442;2022-10-16T14:00:40;3.30;;;0.50;;
22417;SDS011;11376;50.932;4.442;2022-10-16T14:03:18;3.65;;;0.80;;
22417;SDS011;11376;50.932;4.442;2022-10-16T14:05:49;6.35;;;0.50;;
22417;SDS011;11376;50.932;4.442;2022-10-16T14:08:20;1.48;;;0.30;;
22417;SDS011;11376;50.932;4.442;2022-10-16T14:10:47;4.63;;;0.55;;
22417;SDS011;11376;50.932;4.442;2022-10-16T14:13:16;3.55;;;0.75;;
22417;SDS011;11376;50.932;4.442;2022-10-16T14:15:46;1.05;;;0.43;;
22417;SDS011;11376;50.932;4.442;2022-10-16T14:18:18;4.13;;;0.65;;
22417;SDS011;11376;50.932;4.442;2022-10-16T14:20:47;2.40;;;0.45;;
22417;SDS011;11376;50.932;4.442;2022-10-16T14:23:28;2.22;;;0.30;;
22417;SDS011;11376;50.932;4.442;2022-10-16T14:26:12;3.78;;;0.65;;
22417;SDS011;11376;50.932;4.442;2022-10-16T14:28:39;3.13;;;0.65;;
22417;SDS011;11376;50.932;4.442;2022-10-16T14:31:22;5.45;;;0.90;;
22417;SDS011;11376;50.932;4.442;2022-10-16T14:33:51;2.65;;;0.70;;
22417;SDS011;11376;50.932;4.442;2022-10-16T14:36:16;4.47;;;0.93;;
22417;SDS011;11376;50.932;4.442;2022-10-16T14:41:33;3.63;;;0.80;;
22417;SDS011;11376;50.932;4.442;2022-10-16T14:44:09;3.78;;;0.63;;
22417;SDS011;11376;50.932;4.442;2022-10-16T14:46:37;2.75;;;0.73;;
22417;SDS011;11376;50.932;4.442;2022-10-16T14:51:36;4.22;;;1.00;;
22417;SDS011;11376;50.932;4.442;2022-10-16T14:54:03;3.28;;;0.80;;
22417;SDS011;11376;50.932;4.442;2022-10-16T14:56:30;3.70;;;0.88;;
22417;SDS011;11376;50.932;4.442;2022-10-16T14:58:59;3.22;;;0.77;;
22417;SDS011;11376;50.932;4.442;2022-10-16T15:01:26;4.75;;;0.95;;
22417;SDS011;11376;50.932;4.442;2022-10-16T15:03:51;3.17;;;0.90;;
22417;SDS011;11376;50.932;4.442;2022-10-16T15:06:23;4.50;;;0.75;;
22417;SDS011;11376;50.932;4.442;2022-10-16T15:08:49;2.90;;;0.98;;
22417;SDS011;11376;50.932;4.442;2022-10-16T15:11:15;2.45;;;1.00;;
22417;SDS011;11376;50.932;4.442;2022-10-16T15:13:43;4.57;;;0.88;;
22417;SDS011;11376;50.932;4.442;2022-10-16T15:16:12;3.03;;;0.90;;
22417;SDS011;11376;50.932;4.442;2022-10-16T15:18:39;4.55;;;0.60;;
22417;SDS011;11376;50.932;4.442;2022-10-16T15:21:04;4.50;;;0.70;;
22417;SDS011;11376;50.932;4.442;2022-10-16T15:23:30;3.40;;;0.80;;
22417;SDS011;11376;50.932;4.442;2022-10-16T15:25:56;2.20;;;0.50;;
22417;SDS011;11376;50.932;4.442;2022-10-16T15:28:22;1.33;;;0.55;;
22417;SDS011;11376;50.932;4.442;2022-10-16T15:30:49;2.35;;;0.70;;
22417;SDS011;11376;50.932;4.442;2022-10-16T15:33:20;3.75;;;0.80;;
22417;SDS011;11376;50.932;4.442;2022-10-16T15:35:48;2.75;;;0.75;;
22417;SDS011;11376;50.932;4.442;2022-10-16T15:38:18;1.65;;;0.57;;
22417;SDS011;11376;50.932;4.442;2022-10-16T15:40:45;3.63;;;0.90;;
22417;SDS011;11376;50.932;4.442;2022-10-16T15:43:12;3.67;;;1.00;;
22417;SDS011;11376;50.932;4.442;2022-10-16T15:45:37;5.80;;;1.95;;
22417;SDS011;11376;50.932;4.442;2022-10-16T15:48:03;7.45;;;2.08;;
22417;SDS011;11376;50.932;4.442;2022-10-16T15:50:29;5.97;;;1.95;;
22417;SDS011;11376;50.932;4.442;2022-10-16T15:52:56;3.80;;;1.13;;
22417;SDS011;11376;50.932;4.442;2022-10-16T15:55:22;4.47;;;1.80;;
22417;SDS011;11376;50.932;4.442;2022-10-16T15:57:48;3.65;;;1.65;;
22417;SDS011;11376;50.932;4.442;2022-10-16T16:00:15;4.95;;;1.60;;
22417;SDS011;11376;50.932;4.442;2022-10-16T16:02:43;5.38;;;1.38;;
22417;SDS011;11376;50.932;4.442;2022-10-16T16:05:14;5.75;;;1.48;;
22417;SDS011;11376;50.932;4.442;2022-10-16T16:07:40;5.25;;;1.40;;
22417;SDS011;11376;50.932;4.442;2022-10-16T16:10:06;4.18;;;1.10;;
22417;SDS011;11376;50.932;4.442;2022-10-16T16:12:33;3.88;;;1.33;;
22417;SDS011;11376;50.932;4.442;2022-10-16T16:15:00;5.00;;;1.10;;
22417;SDS011;11376;50.932;4.442;2022-10-16T16:17:25;4.43;;;0.90;;
22417;SDS011;11376;50.932;4.442;2022-10-16T16:19:51;2.97;;;1.02;;
22417;SDS011;11376;50.932;4.442;2022-10-16T16:22:17;4.38;;;1.30;;
22417;SDS011;11376;50.932;4.442;2022-10-16T16:24:42;2.60;;;1.05;;
22417;SDS011;11376;50.932;4.442;2022-10-16T16:27:08;6.47;;;1.30;;
22417;SDS011;11376;50.932;4.442;2022-10-16T16:29:34;5.80;;;1.20;;
22417;SDS011;11376;50.932;4.442;2022-10-16T16:32:00;4.63;;;1.00;;
22417;SDS011;11376;50.932;4.442;2022-10-16T16:34:26;5.20;;;1.10;;
22417;SDS011;11376;50.932;4.442;2022-10-16T16:36:53;3.72;;;0.93;;
22417;SDS011;11376;50.932;4.442;2022-10-16T16:39:19;2.30;;;0.90;;
22417;SDS011;11376;50.932;4.442;2022-10-16T16:41:45;3.75;;;0.95;;
22417;SDS011;11376;50.932;4.442;2022-10-16T16:44:11;3.17;;;0.90;;
22417;SDS011;11376;50.932;4.442;2022-10-16T16:46:38;1.88;;;0.68;;